Aviation Digital Data Service (ADDS)

Output produced by METARs form (0307 UTC 28 February 2017)
found at http://aviationweather.gov/adds/metars/
 
KHYA 280025Z 2800/2824 22013KT P6SM SKC 
     FM281400 17004KT P6SM BKN060 
     FM282100 16008KT P6SM VCSH OVC030